Time;durP1;ratioP1;P1;durP2;ratioP2;P2;SDS_P1;SDS_P2;PMS_P1;PMS_P2;Temp;Humidity;BMP_temperature;BMP_pressure;BME280_temperature;BME280_humidity;BME280_pressure;Samples;Min_cycle;Max_cycle;Signal;HPM_P1;HPM_P2
2022/10/05 00:00:44;;;;;;;4.9;11.8;;;;;;;6.8;86.1;99620;;;;
2022/10/05 00:11:44;;;;;;;6;9.6;;;;;;;6.9;87;99620;;;;
2022/10/05 00:21:44;;;;;;;6;9.6;;;;;;;7.1;87.3;99610;;;;
2022/10/05 00:32:44;;;;;;;4.8;9.7;;;;;;;7.1;87.5;99600;;;;
2022/10/05 00:42:44;;;;;;;4.8;9.7;;;;;;;7.3;87.8;99590;;;;
2022/10/05 00:53:44;;;;;;;4.8;9.7;;;;;;;7.4;87.8;99590;;;;
2022/10/05 01:03:44;;;;;;;4.9;7.1;;;;;;;7.3;87.4;99590;;;;
2022/10/05 01:13:44;;;;;;;4.9;7.1;;;;;;;7.2;87.1;99600;;;;
2022/10/05 01:23:44;;;;;;;4.9;7.1;;;;;;;7;86.3;99590;;;;
2022/10/05 01:34:44;;;;;;;5.2;8.5;;;;;;;6.7;86.5;99580;;;;
2022/10/05 01:44:44;;;;;;;5.2;8.5;;;;;;;6.6;86.4;99580;;;;
2022/10/05 01:55:44;;;;;;;5.2;8.5;;;;;;;6.4;86.1;99570;;;;
2022/10/05 02:06:44;;;;;;;5;8.6;;;;;;;6.2;86.5;99560;;;;
2022/10/05 02:16:44;;;;;;;5;8.6;;;;;;;6.4;88;99550;;;;
2022/10/05 02:27:44;;;;;;;5;8.6;;;;;;;6.5;88.4;99580;;;;
2022/10/05 02:38:44;;;;;;;5;9.4;;;;;;;6.4;87.8;99550;;;;
2022/10/05 02:48:44;;;;;;;5;9.4;;;;;;;6.3;87.4;99560;;;;
2022/10/05 02:59:44;;;;;;;5;9.4;;;;;;;6.1;87.5;99540;;;;
2022/10/05 03:09:44;;;;;;;6.9;11.3;;;;;;;6;87.5;99530;;;;
2022/10/05 03:19:44;;;;;;;6.9;11.3;;;;;;;5.9;87.6;99540;;;;
2022/10/05 03:30:44;;;;;;;6.9;11.3;;;;;;;5.8;87.5;99540;;;;
2022/10/05 03:41:44;;;;;;;6.4;9.3;;;;;;;5.7;88;99560;;;;
2022/10/05 03:52:44;;;;;;;6.4;9.3;;;;;;;5.7;88.1;99580;;;;
2022/10/05 04:03:44;;;;;;;5.8;9.9;;;;;;;5.6;87.9;99590;;;;
2022/10/05 04:14:44;;;;;;;5.8;9.9;;;;;;;5.6;88.7;99560;;;;
2022/10/05 04:24:44;;;;;;;5.8;9.9;;;;;;;5.6;88.9;99530;;;;
2022/10/05 04:35:44;;;;;;;8.8;13.1;;;;;;;5.7;89;99530;;;;
2022/10/05 04:45:44;;;;;;;8.8;13.1;;;;;;;5.6;88.9;99510;;;;
2022/10/05 04:56:44;;;;;;;8.8;13.1;;;;;;;5.5;88.8;99540;;;;
2022/10/05 05:06:44;;;;;;;6.7;12.6;;;;;;;5.4;88.6;99510;;;;
2022/10/05 05:17:44;;;;;;;6.7;12.6;;;;;;;5.4;88.6;99520;;;;
2022/10/05 05:28:44;;;;;;;6.7;12.6;;;;;;;5.6;88.8;99540;;;;
2022/10/05 05:39:44;;;;;;;6.6;10.4;;;;;;;5.6;88.7;99530;;;;
2022/10/05 05:49:44;;;;;;;6.6;10.4;;;;;;;6;89.2;99550;;;;
2022/10/05 06:00:45;;;;;;;7.6;13.1;;;;;;;6.5;89.4;99530;;;;
2022/10/05 06:10:44;;;;;;;7.6;13.1;;;;;;;7.3;90.1;99510;;;;
2022/10/05 06:20:44;;;;;;;7.6;13.1;;;;;;;7.8;89.7;99540;;;;
2022/10/05 06:31:44;;;;;;;7.4;17.8;;;;;;;8;88.2;99570;;;;
2022/10/05 06:42:44;;;;;;;7.4;17.8;;;;;;;8.4;87.6;99570;;;;
2022/10/05 06:52:44;;;;;;;7.4;17.8;;;;;;;9.1;87.3;99560;;;;
2022/10/05 07:03:44;;;;;;;8.4;16.3;;;;;;;9.6;86.1;99550;;;;
2022/10/05 07:13:44;;;;;;;8.4;16.3;;;;;;;10.1;85.9;99560;;;;
2022/10/05 07:23:44;;;;;;;8.4;16.3;;;;;;;11.1;84.8;99570;;;;
2022/10/05 07:34:44;;;;;;;6.3;11.9;;;;;;;12;78.3;99540;;;;
2022/10/05 07:45:44;;;;;;;6.3;11.9;;;;;;;12.5;74.9;99530;;;;
2022/10/05 07:55:44;;;;;;;6.3;11.9;;;;;;;12.9;73.3;99530;;;;
2022/10/05 08:06:45;;;;;;;3.1;7;;;;;;;13.2;72.5;99530;;;;
2022/10/05 08:17:44;;;;;;;3.1;7;;;;;;;13.5;71.8;99530;;;;
2022/10/05 08:28:45;;;;;;;3.1;7;;;;;;;14.1;71.7;99520;;;;
2022/10/05 08:38:44;;;;;;;3;5.6;;;;;;;14.6;69.9;99520;;;;
2022/10/05 08:49:44;;;;;;;3;5.6;;;;;;;15.4;67.1;99530;;;;
2022/10/05 08:59:44;;;;;;;3;5.6;;;;;;;16.1;65.4;99540;;;;
2022/10/05 09:10:44;;;;;;;2.6;4.8;;;;;;;16.7;64.7;99520;;;;
2022/10/05 09:21:44;;;;;;;2.6;4.8;;;;;;;17.1;64.6;99520;;;;
2022/10/05 09:31:44;;;;;;;2.6;6.6;;;;;;;17.4;63.6;99540;;;;
2022/10/05 09:41:45;;;;;;;2.6;6.6;;;;;;;17.7;64.8;99530;;;;
2022/10/05 09:51:44;;;;;;;2.6;6.6;;;;;;;18.2;63.5;99520;;;;
2022/10/05 10:02:44;;;;;;;2.8;5.6;;;;;;;18.5;60.8;99520;;;;
2022/10/05 10:12:44;;;;;;;2.8;5.6;;;;;;;18.6;60.8;99520;;;;
2022/10/05 10:23:44;;;;;;;2.8;5.6;;;;;;;18.7;61.5;99510;;;;
2022/10/05 10:34:44;;;;;;;2.5;6.2;;;;;;;18.6;59.1;99500;;;;
2022/10/05 10:45:44;;;;;;;2.5;6.2;;;;;;;18.6;59.4;99510;;;;
2022/10/05 10:56:44;;;;;;;2.5;6.2;;;;;;;18.8;61.4;99520;;;;
2022/10/05 11:06:44;;;;;;;2.8;5.6;;;;;;;19.4;57.9;99510;;;;
2022/10/05 11:16:45;;;;;;;2.8;5.6;;;;;;;19.9;56.9;99510;;;;
2022/10/05 11:27:45;;;;;;;2.8;5.6;;;;;;;20;55.3;99500;;;;
2022/10/05 11:38:45;;;;;;;3.1;6.2;;;;;;;20.5;57.3;99490;;;;
2022/10/05 11:48:45;;;;;;;3.1;6.2;;;;;;;20.3;55.2;99490;;;;
2022/10/05 11:59:44;;;;;;;3.1;6.2;;;;;;;20.5;57.2;99480;;;;
2022/10/05 12:10:45;;;;;;;3.8;8.4;;;;;;;20.7;56.3;99480;;;;
2022/10/05 12:20:45;;;;;;;3.8;8.4;;;;;;;20.7;57.2;99480;;;;
2022/10/05 12:31:45;;;;;;;3.1;5.8;;;;;;;20.9;58.3;99470;;;;
2022/10/05 12:41:45;;;;;;;3.1;5.8;;;;;;;20.5;53.5;99460;;;;
2022/10/05 12:51:45;;;;;;;3.1;5.8;;;;;;;20.7;54.2;99460;;;;
2022/10/05 13:01:45;;;;;;;1.9;4.3;;;;;;;20.6;53.6;99450;;;;
2022/10/05 13:12:46;;;;;;;1.9;4.3;;;;;;;20.4;54.5;99430;;;;
2022/10/05 13:23:44;;;;;;;1.9;4.3;;;;;;;20.5;55.4;99430;;;;
2022/10/05 13:33:45;;;;;;;1.9;4.4;;;;;;;20.2;56.6;99420;;;;
2022/10/05 13:44:44;;;;;;;1.9;4.4;;;;;;;19.4;56.5;99430;;;;
2022/10/05 13:55:45;;;;;;;1.9;4.4;;;;;;;19.3;57.8;99430;;;;
2022/10/05 14:05:45;;;;;;;2.4;7.2;;;;;;;19;58.5;99420;;;;
2022/10/05 14:15:45;;;;;;;2.4;7.2;;;;;;;18.9;58.7;99410;;;;
2022/10/05 14:25:45;;;;;;;2.4;7.2;;;;;;;18.8;60.6;99400;;;;
2022/10/05 14:35:45;;;;;;;3;6.6;;;;;;;18.6;61.9;99390;;;;
2022/10/05 14:46:45;;;;;;;3;6.6;;;;;;;18.3;65.5;99390;;;;
2022/10/05 14:56:45;;;;;;;3;6.6;;;;;;;18.2;64.3;99380;;;;
2022/10/05 15:06:45;;;;;;;3.9;7.4;;;;;;;18;63.9;99380;;;;
2022/10/05 15:17:46;;;;;;;3.9;7.4;;;;;;;17.6;65.5;99370;;;;
2022/10/05 15:27:46;;;;;;;3.9;7.4;;;;;;;17.3;67.3;99360;;;;
2022/10/05 15:37:46;;;;;;;4.8;10.5;;;;;;;16.9;68.1;99360;;;;
2022/10/05 15:48:45;;;;;;;4.8;10.5;;;;;;;16.3;69.5;99360;;;;
2022/10/05 15:58:45;;;;;;;4.8;10.5;;;;;;;15.9;70.5;99360;;;;
2022/10/05 16:09:45;;;;;;;16.4;31.7;;;;;;;15.4;71.9;99360;;;;
2022/10/05 16:19:45;;;;;;;16.4;31.7;;;;;;;14.9;72.7;99360;;;;
2022/10/05 16:29:45;;;;;;;16.4;31.7;;;;;;;14.5;74.2;99350;;;;
2022/10/05 16:40:45;;;;;;;8.7;14.2;;;;;;;14.2;76.2;99350;;;;
2022/10/05 16:51:45;;;;;;;8.7;14.2;;;;;;;14.1;75.3;99340;;;;
2022/10/05 17:01:45;;;;;;;8;13.2;;;;;;;14;75;99340;;;;
2022/10/05 17:12:45;;;;;;;8;13.2;;;;;;;13.8;75.1;99340;;;;
2022/10/05 17:23:46;;;;;;;8;13.2;;;;;;;13.5;75.4;99340;;;;
2022/10/05 17:33:45;;;;;;;23.4;35.7;;;;;;;13.2;76.5;99330;;;;
2022/10/05 17:43:46;;;;;;;23.4;35.7;;;;;;;13;76.2;99320;;;;
2022/10/05 17:55:24;;;;;;;23.4;35.7;;;;;;;12.9;76.2;99320;;;;
2022/10/05 18:05:45;;;;;;;7;12.6;;;;;;;12.9;76.4;99320;;;;
2022/10/05 18:15:45;;;;;;;7;12.6;;;;;;;12.9;75.4;99320;;;;
2022/10/05 18:26:45;;;;;;;7;12.6;;;;;;;12.8;75.1;99330;;;;
2022/10/05 18:37:45;;;;;;;7.2;11.2;;;;;;;12.5;75.5;99330;;;;
2022/10/05 18:47:45;;;;;;;7.2;11.2;;;;;;;12.3;75.8;99320;;;;
2022/10/05 18:57:45;;;;;;;7.2;11.2;;;;;;;12.1;76.4;99340;;;;
2022/10/05 19:08:45;;;;;;;7.5;13.7;;;;;;;12;76.5;99350;;;;
2022/10/05 19:18:45;;;;;;;7.5;13.7;;;;;;;11.8;77.3;99350;;;;
2022/10/05 19:28:45;;;;;;;7.5;13.7;;;;;;;11.7;78;99350;;;;
2022/10/05 19:39:45;;;;;;;8.7;12;;;;;;;11.5;78.3;99360;;;;
2022/10/05 19:49:45;;;;;;;8.7;12;;;;;;;11.3;78.2;99360;;;;
2022/10/05 19:59:45;;;;;;;8.7;12;;;;;;;11.3;78.4;99370;;;;
2022/10/05 20:10:45;;;;;;;8.8;14.4;;;;;;;11.6;78.2;99370;;;;
2022/10/05 20:21:45;;;;;;;8.8;14.4;;;;;;;11.5;77.9;99380;;;;
2022/10/05 20:31:45;;;;;;;6.7;11.4;;;;;;;11.7;77.3;99390;;;;
2022/10/05 20:41:45;;;;;;;6.7;11.4;;;;;;;11.7;77.7;99390;;;;
2022/10/05 20:51:45;;;;;;;6.7;11.4;;;;;;;11.7;78.1;99380;;;;
2022/10/05 21:01:46;;;;;;;6.4;12.5;;;;;;;11.7;77.4;99390;;;;
2022/10/05 21:11:45;;;;;;;6.4;12.5;;;;;;;11.8;76.8;99380;;;;
2022/10/05 21:21:45;;;;;;;6.4;12.5;;;;;;;11.6;77.8;99380;;;;
2022/10/05 21:32:45;;;;;;;6;8.9;;;;;;;11.7;77.3;99380;;;;
2022/10/05 21:43:45;;;;;;;6;8.9;;;;;;;11.8;76.8;99370;;;;
2022/10/05 21:53:45;;;;;;;6;8.9;;;;;;;11.8;76.8;99370;;;;
2022/10/05 22:04:45;;;;;;;5.7;8.7;;;;;;;11.7;76.8;99360;;;;
2022/10/05 22:15:45;;;;;;;5.7;8.7;;;;;;;11.7;77.1;99360;;;;
2022/10/05 22:25:45;;;;;;;5.7;8.7;;;;;;;11.6;77;99360;;;;
2022/10/05 22:36:46;;;;;;;6.3;11.9;;;;;;;10.9;78.6;99370;;;;
2022/10/05 22:46:45;;;;;;;6.3;11.9;;;;;;;10.6;78.7;99370;;;;
2022/10/05 22:56:45;;;;;;;6.3;11.9;;;;;;;10.2;79;99380;;;;
2022/10/05 23:06:45;;;;;;;12.6;17.2;;;;;;;9.7;80.4;99390;;;;
2022/10/05 23:17:45;;;;;;;12.6;17.2;;;;;;;9.4;80.8;99390;;;;
2022/10/05 23:27:45;;;;;;;12.6;17.2;;;;;;;9.2;81.1;99410;;;;
2022/10/05 23:37:45;;;;;;;9.7;15;;;;;;;9;81.5;99410;;;;
2022/10/05 23:48:45;;;;;;;9.7;15;;;;;;;8.9;82.1;99420;;;;
2022/10/05 23:59:45;;;;;;;9.7;15;;;;;;;9.1;83.6;99430;;;;
